createdAt,value
2023-03-11T00:00:00.462Z,97799.72
2023-03-11T00:02:27.635Z,97809.75
2023-03-11T00:04:55.158Z,97802.81
2023-03-11T00:07:22.338Z,97803.88
2023-03-11T00:09:49.670Z,97793.53
2023-03-11T00:12:17.276Z,97792.63
2023-03-11T00:14:44.517Z,97797.63
2023-03-11T00:17:11.669Z,97801.75
2023-03-11T00:19:39.127Z,97794.56
2023-03-11T00:22:06.307Z,97795.03
2023-03-11T00:24:34.033Z,97784.88
2023-03-11T00:27:01.618Z,97785.13
2023-03-11T00:29:28.922Z,97782.84
2023-03-11T00:31:56.218Z,97795.12
2023-03-11T00:34:23.990Z,97794.34
2023-03-11T00:36:51.148Z,97783.84
2023-03-11T00:39:18.278Z,97789.41
2023-03-11T00:41:46.012Z,97789.84
2023-03-11T00:44:13.840Z,97806.41
2023-03-11T00:46:41.093Z,97798.50
2023-03-11T00:49:08.624Z,97807.16
2023-03-11T00:51:35.805Z,97788.34
2023-03-11T00:54:03.044Z,97816.81
2023-03-11T00:56:31.186Z,97811.66
2023-03-11T00:58:58.371Z,97819.41
2023-03-11T01:01:25.648Z,97825.41
2023-03-11T01:03:53.167Z,97802.44
2023-03-11T01:06:20.385Z,97805.47
2023-03-11T01:08:47.537Z,97815.03
2023-03-11T01:11:15.124Z,97808.06
2023-03-11T01:13:42.325Z,97815.69
2023-03-11T01:16:09.615Z,97805.25
2023-03-11T01:18:37.129Z,97805.44
2023-03-11T01:21:04.435Z,97809.38
2023-03-11T01:23:32.943Z,97810.84
2023-03-11T01:26:00.360Z,97801.66
2023-03-11T01:28:27.547Z,97796.38
2023-03-11T01:30:54.824Z,97803.19
2023-03-11T01:33:22.297Z,97805.94
2023-03-11T01:35:49.499Z,97811.88
2023-03-11T01:38:17.314Z,97797.25
2023-03-11T01:40:45.935Z,97800.06
2023-03-11T01:43:32.111Z,97804.06
2023-03-11T01:46:02.163Z,97803.88
2023-03-11T01:48:29.610Z,97796.75
2023-03-11T01:50:56.843Z,97806.87
2023-03-11T01:53:25.732Z,97807.09
2023-03-11T01:55:52.958Z,97812.09
2023-03-11T01:58:27.650Z,97803.81
2023-03-11T02:00:55.221Z,97812.00
2023-03-11T02:03:33.207Z,97807.59
2023-03-11T02:06:01.471Z,97802.06
2023-03-11T02:08:30.185Z,97820.87
2023-03-11T02:10:57.437Z,97819.25
2023-03-11T02:13:24.915Z,97820.28
2023-03-11T02:15:52.389Z,97818.12
2023-03-11T02:18:20.437Z,97814.22
2023-03-11T02:20:50.908Z,97810.06
2023-03-11T02:23:18.933Z,97807.47
2023-03-11T02:26:05.425Z,97808.13
2023-03-11T02:28:33.203Z,97803.56
2023-03-11T02:31:00.501Z,97801.59
2023-03-11T02:33:29.461Z,97804.63
2023-03-11T02:35:57.705Z,97806.59
2023-03-11T02:38:25.155Z,97796.88
2023-03-11T02:40:57.161Z,97797.25
2023-03-11T02:43:29.008Z,97805.31
2023-03-11T02:45:56.177Z,97813.22
2023-03-11T02:48:23.972Z,97808.88
2023-03-11T02:50:51.490Z,97809.91
2023-03-11T02:53:19.247Z,97813.47
2023-03-11T02:55:47.069Z,97804.91
2023-03-11T02:58:14.639Z,97817.69
2023-03-11T03:00:41.954Z,97826.00
2023-03-11T03:03:11.071Z,97832.31
2023-03-11T03:05:38.959Z,97820.41
2023-03-11T03:08:06.373Z,97837.59
2023-03-11T03:10:33.593Z,97828.53
2023-03-11T03:13:01.109Z,97838.91
2023-03-11T03:15:28.831Z,97842.66
2023-03-11T03:17:56.553Z,97836.47
2023-03-11T03:20:24.015Z,97830.50
2023-03-11T03:22:51.549Z,97841.50
2023-03-11T03:25:19.042Z,97866.78
2023-03-11T03:27:47.149Z,97855.78
2023-03-11T03:30:15.178Z,97842.34
2023-03-11T03:32:42.789Z,97809.53
2023-03-11T03:35:10.726Z,97828.19
2023-03-11T03:37:39.722Z,97865.16
2023-03-11T03:40:07.896Z,97844.97
2023-03-11T03:42:36.082Z,97860.00
2023-03-11T03:45:04.109Z,97848.62
2023-03-11T03:47:32.046Z,97840.22
2023-03-11T03:50:00.096Z,97846.59
2023-03-11T03:52:27.327Z,97843.19
2023-03-11T03:54:54.696Z,97856.81
2023-03-11T03:57:22.188Z,97849.84
2023-03-11T03:59:49.347Z,97840.22
2023-03-11T04:02:16.677Z,97845.22
2023-03-11T04:04:44.426Z,97858.53
2023-03-11T04:07:11.640Z,97849.59
2023-03-11T04:09:40.310Z,97862.44
2023-03-11T04:12:07.766Z,97873.78
2023-03-11T04:14:35.168Z,97862.97
2023-03-11T04:17:02.402Z,97886.22
2023-03-11T04:19:29.970Z,97873.00
2023-03-11T04:22:16.401Z,97894.88
2023-03-11T04:24:43.885Z,97882.25
2023-03-11T04:27:11.073Z,97881.47
2023-03-11T04:29:39.646Z,97888.59
2023-03-11T04:32:07.360Z,97878.50
2023-03-11T04:34:36.355Z,97886.16
2023-03-11T04:37:04.455Z,97887.19
2023-03-11T04:39:32.653Z,97897.59
2023-03-11T04:42:02.877Z,97908.22
2023-03-11T04:44:31.977Z,97885.06
2023-03-11T04:46:59.155Z,97859.16
2023-03-11T04:49:26.496Z,97876.47
2023-03-11T04:51:54.066Z,97871.41
2023-03-11T04:54:21.405Z,97851.28
2023-03-11T04:56:48.762Z,97883.72
2023-03-11T04:59:16.414Z,97885.16
2023-03-11T05:01:43.793Z,97886.03
2023-03-11T05:04:12.029Z,97885.56
2023-03-11T05:06:39.742Z,97882.97
2023-03-11T05:09:07.262Z,97893.97
2023-03-11T05:11:34.976Z,97876.44
2023-03-11T05:14:02.537Z,97873.75
2023-03-11T05:16:29.710Z,97887.84
2023-03-11T05:18:57.085Z,97894.66
2023-03-11T05:21:24.679Z,97892.03
2023-03-11T05:23:53.322Z,97884.13
2023-03-11T05:26:20.781Z,97916.50
2023-03-11T05:28:48.234Z,97904.84
2023-03-11T05:31:15.822Z,97918.94
2023-03-11T05:33:43.058Z,97924.16
2023-03-11T05:36:11.804Z,97919.22
2023-03-11T05:38:40.098Z,97955.41
2023-03-11T05:41:07.671Z,97931.94
2023-03-11T05:43:35.834Z,97962.41
2023-03-11T05:46:03.388Z,97960.38
2023-03-11T05:48:31.358Z,97969.44
2023-03-11T05:50:59.488Z,97979.00
2023-03-11T05:53:26.925Z,97976.09
2023-03-11T05:55:57.974Z,97969.94
2023-03-11T05:58:26.174Z,97958.91
2023-03-11T06:00:53.365Z,97960.13
2023-03-11T06:03:20.907Z,97970.38
2023-03-11T06:05:48.868Z,97976.13
2023-03-11T06:08:16.114Z,97972.06
2023-03-11T06:10:43.815Z,97988.91
2023-03-11T06:13:11.304Z,97961.84
2023-03-11T06:15:40.121Z,97986.63
2023-03-11T06:18:07.636Z,97974.97
2023-03-11T06:20:36.191Z,97983.72
2023-03-11T06:23:03.406Z,98006.00
2023-03-11T06:25:30.955Z,98026.84
2023-03-11T06:27:58.103Z,98022.50
2023-03-11T06:30:25.557Z,98039.12
2023-03-11T06:32:53.248Z,98043.50
2023-03-11T06:35:20.810Z,98050.03
2023-03-11T06:37:47.950Z,98049.84
2023-03-11T06:40:15.561Z,98054.97
2023-03-11T06:42:42.900Z,98070.63
2023-03-11T06:45:10.843Z,98066.25
2023-03-11T06:47:38.833Z,98086.56
2023-03-11T06:50:08.639Z,98082.53
2023-03-11T06:52:36.288Z,98091.53
2023-03-11T06:55:04.138Z,98099.00
2023-03-11T06:57:31.737Z,98103.19
2023-03-11T06:59:59.214Z,98087.47
2023-03-11T07:02:26.809Z,98101.25
2023-03-11T07:04:53.982Z,98076.06
2023-03-11T07:07:21.447Z,98095.84
2023-03-11T07:09:48.874Z,98101.38
2023-03-11T07:12:16.094Z,98085.31
2023-03-11T07:14:43.645Z,98117.59
2023-03-11T07:17:11.179Z,98116.34
2023-03-11T07:19:38.674Z,98113.84
2023-03-11T07:22:05.835Z,98110.13
2023-03-11T07:24:33.271Z,98093.16
2023-03-11T07:27:00.839Z,98130.12
2023-03-11T07:29:28.076Z,98089.72
2023-03-11T07:31:55.640Z,98122.88
2023-03-11T07:34:22.884Z,98118.97
2023-03-11T07:36:50.049Z,98099.59
2023-03-11T07:39:18.871Z,98121.81
2023-03-11T07:41:46.404Z,98112.66
2023-03-11T07:44:14.118Z,98100.38
2023-03-11T07:46:41.536Z,98094.59
2023-03-11T07:49:08.860Z,98100.12
2023-03-11T07:51:36.453Z,98091.47
2023-03-11T07:54:04.257Z,98107.81
2023-03-11T07:56:32.622Z,98099.91
2023-03-11T07:59:00.260Z,98100.88
2023-03-11T08:01:30.597Z,98084.75
2023-03-11T08:03:59.250Z,98093.84
2023-03-11T08:06:29.140Z,98082.31
2023-03-11T08:08:56.301Z,98071.91
2023-03-11T08:11:23.977Z,98069.69
2023-03-11T08:13:51.238Z,98076.56
2023-03-11T08:16:19.238Z,98089.53
2023-03-11T08:18:47.460Z,98104.28
2023-03-11T08:21:15.798Z,98128.50
2023-03-11T08:23:44.054Z,98133.66
2023-03-11T08:26:12.619Z,98118.22
2023-03-11T08:28:39.930Z,98070.31
2023-03-11T08:31:17.324Z,98068.19
2023-03-11T08:33:45.222Z,98074.91
2023-03-11T08:36:12.989Z,98034.44
2023-03-11T08:38:40.407Z,98045.16
2023-03-11T08:41:08.189Z,98038.91
2023-03-11T08:43:35.786Z,98031.12
2023-03-11T08:46:06.678Z,98040.59
2023-03-11T08:48:35.177Z,98022.41
2023-03-11T08:51:03.114Z,98071.22
2023-03-11T08:53:30.573Z,98118.13
2023-03-11T08:55:58.462Z,98068.66
2023-03-11T08:58:25.938Z,98086.84
2023-03-11T09:00:53.344Z,98114.38
2023-03-11T09:03:22.443Z,98114.91
2023-03-11T09:05:49.884Z,98094.72
2023-03-11T09:08:17.257Z,98103.34
2023-03-11T09:10:45.115Z,98123.94
2023-03-11T09:13:12.258Z,98108.50
2023-03-11T09:15:40.052Z,98142.59
2023-03-11T09:18:09.152Z,98169.19
2023-03-11T09:20:38.713Z,98155.59
2023-03-11T09:23:07.010Z,98162.41
2023-03-11T09:25:34.529Z,98176.84
2023-03-11T09:28:01.678Z,98199.91
2023-03-11T09:30:29.152Z,98162.84
2023-03-11T09:32:56.642Z,98190.50
2023-03-11T09:35:23.891Z,98202.69
2023-03-11T09:37:51.241Z,98196.75
2023-03-11T09:40:19.720Z,98214.31
2023-03-11T09:42:49.846Z,98221.72
2023-03-11T09:45:18.701Z,98224.75
2023-03-11T09:47:58.598Z,98233.66
2023-03-11T09:50:26.851Z,98227.16
2023-03-11T09:53:08.675Z,98247.09
2023-03-11T09:55:45.057Z,98223.78
2023-03-11T09:58:21.769Z,98219.44
2023-03-11T10:00:49.332Z,98212.47
2023-03-11T10:03:31.825Z,98247.87
2023-03-11T10:06:03.013Z,98220.06
2023-03-11T10:08:35.133Z,98216.13
2023-03-11T10:11:10.744Z,98236.16
2023-03-11T10:13:45.358Z,98210.50
2023-03-11T10:16:18.736Z,98228.53
2023-03-11T10:18:47.831Z,98239.25
2023-03-11T10:21:25.925Z,98233.63
2023-03-11T10:23:53.383Z,98247.91
2023-03-11T10:26:22.307Z,98265.69
2023-03-11T10:28:54.742Z,98260.03
2023-03-11T10:31:25.292Z,98303.25
2023-03-11T10:34:00.423Z,98294.09
2023-03-11T10:36:42.773Z,98307.84
2023-03-11T10:39:10.231Z,98317.16
2023-03-11T10:41:44.950Z,98321.66
2023-03-11T10:44:12.113Z,98320.16
2023-03-11T10:46:39.561Z,98324.91
2023-03-11T10:49:16.313Z,98314.47
2023-03-11T10:51:48.394Z,98309.66
2023-03-11T10:54:29.383Z,98314.78
2023-03-11T10:56:58.465Z,98297.25
2023-03-11T10:59:25.795Z,98301.94
2023-03-11T11:02:01.921Z,98306.38
2023-03-11T11:04:38.332Z,98306.25
2023-03-11T11:07:41.618Z,98309.47
2023-03-11T11:10:12.330Z,98300.09
2023-03-11T11:12:59.908Z,98316.00
2023-03-11T11:15:50.725Z,98308.00
2023-03-11T11:18:23.972Z,98327.13
2023-03-11T11:21:07.658Z,98319.47
2023-03-11T11:23:36.601Z,98330.44
2023-03-11T11:26:10.500Z,98345.19
2023-03-11T11:28:37.683Z,98340.25
2023-03-11T11:31:06.304Z,98352.44
2023-03-11T11:33:35.777Z,98345.00
2023-03-11T11:36:04.256Z,98342.44
2023-03-11T11:38:32.190Z,98337.66
2023-03-11T11:41:00.108Z,98353.44
2023-03-11T11:43:46.260Z,98368.00
2023-03-11T11:46:21.846Z,98357.59
2023-03-11T11:48:57.135Z,98370.28
2023-03-11T11:51:30.371Z,98368.13
2023-03-11T11:53:59.713Z,98368.00
2023-03-11T11:56:27.438Z,98376.56
2023-03-11T11:58:55.390Z,98386.94
2023-03-11T12:01:30.588Z,98380.56
2023-03-11T12:04:16.226Z,98391.06
2023-03-11T12:07:02.424Z,98383.09
2023-03-11T12:09:30.605Z,98372.34
2023-03-11T12:12:01.699Z,98381.69
2023-03-11T12:14:36.219Z,98372.28
2023-03-11T12:17:04.508Z,98371.06
2023-03-11T12:19:40.096Z,98374.34
2023-03-11T12:22:29.530Z,98377.37
2023-03-11T12:24:56.749Z,98371.28
2023-03-11T12:27:32.061Z,98358.62
2023-03-11T12:30:00.385Z,98351.78
2023-03-11T12:32:30.805Z,98332.25
2023-03-11T12:35:20.471Z,98349.63
2023-03-11T12:37:55.272Z,98344.72
2023-03-11T12:40:41.376Z,98347.00
2023-03-11T12:43:35.414Z,98351.12
2023-03-11T12:46:07.203Z,98349.97
2023-03-11T12:48:53.994Z,98342.62
2023-03-11T12:51:27.220Z,98343.06
2023-03-11T12:53:55.386Z,98347.13
2023-03-11T12:56:44.267Z,98356.50
2023-03-11T12:59:30.865Z,98390.00
2023-03-11T13:02:09.850Z,98386.75
2023-03-11T13:04:43.390Z,98374.53
2023-03-11T13:07:51.350Z,98381.25
2023-03-11T13:10:30.115Z,98419.22
2023-03-11T13:12:57.610Z,98407.34
2023-03-11T13:15:36.801Z,98412.28
2023-03-11T13:18:13.823Z,98414.78
2023-03-11T13:20:41.614Z,98434.72
2023-03-11T13:23:12.000Z,98443.91
2023-03-11T13:25:44.135Z,98435.09
2023-03-11T13:28:30.559Z,98442.69
2023-03-11T13:30:58.039Z,98455.72
2023-03-11T13:33:27.164Z,98434.19
2023-03-11T13:35:57.131Z,98432.78
2023-03-11T13:38:53.720Z,98440.53
2023-03-11T13:41:32.293Z,98454.28
2023-03-11T13:44:10.871Z,98467.50
2023-03-11T13:46:41.228Z,98481.22
2023-03-11T13:49:44.099Z,98480.53
2023-03-11T13:52:24.577Z,98487.22
2023-03-11T13:55:01.986Z,98488.25
2023-03-11T13:57:34.953Z,98513.13
2023-03-11T14:00:16.295Z,98515.66
2023-03-11T14:02:51.120Z,98523.53
2023-03-11T14:05:22.853Z,98516.56
2023-03-11T14:07:54.714Z,98535.06
2023-03-11T14:10:26.198Z,98544.59
2023-03-11T14:13:17.290Z,98545.87
2023-03-11T14:15:52.891Z,98526.84
2023-03-11T14:18:48.860Z,98543.41
2023-03-11T14:21:19.745Z,98555.72
2023-03-11T14:23:51.779Z,98568.94
2023-03-11T14:26:29.443Z,98554.88
2023-03-11T14:28:59.832Z,98579.03
2023-03-11T14:31:38.889Z,98594.41
2023-03-11T14:34:10.124Z,98582.44
2023-03-11T14:36:48.698Z,98600.13
2023-03-11T14:39:36.506Z,98595.56
2023-03-11T14:42:19.527Z,98607.47
2023-03-11T14:45:12.281Z,98602.50
2023-03-11T14:48:03.629Z,98601.63
2023-03-11T14:50:35.472Z,98605.66
2023-03-11T14:53:16.696Z,98594.09
2023-03-11T14:56:09.132Z,98573.53
2023-03-11T14:59:22.460Z,98615.19
2023-03-11T15:01:51.379Z,98615.66
2023-03-11T15:04:33.678Z,98586.13
2023-03-11T15:07:04.402Z,98594.66
2023-03-11T15:09:33.020Z,98639.38
2023-03-11T15:12:05.025Z,98624.13
2023-03-11T15:14:37.297Z,98626.84
2023-03-11T15:17:35.656Z,98633.56
2023-03-11T15:20:07.760Z,98643.84
2023-03-11T15:22:39.910Z,98643.16
2023-03-11T15:25:18.835Z,98633.38
2023-03-11T15:27:47.184Z,98674.19
2023-03-11T15:30:31.915Z,98676.50
2023-03-11T15:32:59.955Z,98680.03
2023-03-11T15:35:29.526Z,98684.47
2023-03-11T15:38:21.485Z,98699.38
2023-03-11T15:41:01.369Z,98674.47
2023-03-11T15:43:45.668Z,98672.03
2023-03-11T15:46:16.796Z,98687.31
2023-03-11T15:48:44.466Z,98694.62
2023-03-11T15:51:20.509Z,98702.31
2023-03-11T15:53:48.816Z,98695.31
2023-03-11T15:56:24.334Z,98727.44
2023-03-11T15:58:52.392Z,98725.97
2023-03-11T16:01:24.093Z,98733.16
2023-03-11T16:03:52.654Z,98728.37
2023-03-11T16:06:20.438Z,98737.81
2023-03-11T16:08:49.061Z,98745.09
2023-03-11T16:11:19.252Z,98737.38
2023-03-11T16:13:47.357Z,98735.66
2023-03-11T16:16:19.233Z,98751.97
2023-03-11T16:18:47.863Z,98743.81
2023-03-11T16:21:21.488Z,98749.50
2023-03-11T16:23:52.311Z,98779.13
2023-03-11T16:26:22.144Z,98760.84
2023-03-11T16:28:50.452Z,98786.78
2023-03-11T16:31:18.147Z,98777.53
2023-03-11T16:33:45.988Z,98789.25
2023-03-11T16:36:14.777Z,98776.44
2023-03-11T16:38:46.163Z,98765.69
2023-03-11T16:41:14.847Z,98789.03
2023-03-11T16:43:43.335Z,98767.16
2023-03-11T16:46:11.488Z,98790.69
2023-03-11T16:48:40.595Z,98795.38
2023-03-11T16:51:09.040Z,98793.91
2023-03-11T16:53:37.300Z,98793.78
2023-03-11T16:56:08.373Z,98813.81
2023-03-11T16:58:36.040Z,98812.03
2023-03-11T17:01:03.721Z,98811.87
2023-03-11T17:03:41.802Z,98841.87
2023-03-11T17:06:10.815Z,98847.66
2023-03-11T17:08:39.349Z,98854.72
2023-03-11T17:11:14.765Z,98860.25
2023-03-11T17:13:43.063Z,98860.25
2023-03-11T17:16:11.482Z,98874.38
2023-03-11T17:18:40.086Z,98887.19
2023-03-11T17:21:11.103Z,98889.34
2023-03-11T17:23:39.417Z,98874.09
2023-03-11T17:26:13.013Z,98891.09
2023-03-11T17:28:42.173Z,98887.97
2023-03-11T17:31:14.948Z,98893.34
2023-03-11T17:33:44.120Z,98899.44
2023-03-11T17:36:16.655Z,98920.28
2023-03-11T17:38:47.030Z,98929.09
2023-03-11T17:41:17.534Z,98912.09
2023-03-11T17:43:46.951Z,98941.78
2023-03-11T17:46:17.589Z,98947.69
2023-03-11T17:48:48.425Z,98957.59
2023-03-11T17:51:26.738Z,98943.00
2023-03-11T17:53:56.492Z,98961.03
2023-03-11T17:56:26.992Z,98956.34
2023-03-11T17:58:56.093Z,98944.16
2023-03-11T18:01:30.199Z,98967.94
2023-03-11T18:03:59.659Z,98960.28
2023-03-11T18:06:29.999Z,98961.81
2023-03-11T18:08:59.224Z,98954.50
2023-03-11T18:11:28.971Z,98960.16
2023-03-11T18:13:58.693Z,98952.59
2023-03-11T18:16:29.282Z,98979.97
2023-03-11T18:19:00.380Z,98985.28
2023-03-11T18:21:31.731Z,98981.56
2023-03-11T18:24:01.576Z,98969.38
2023-03-11T18:26:31.284Z,98997.47
2023-03-11T18:29:02.086Z,98999.06
2023-03-11T18:31:32.316Z,98995.53
2023-03-11T18:34:03.272Z,99013.00
2023-03-11T18:36:36.854Z,99000.25
2023-03-11T18:39:05.433Z,99019.13
2023-03-11T18:41:35.507Z,99030.81
2023-03-11T18:44:03.700Z,99036.81
2023-03-11T18:46:32.892Z,99024.19
2023-03-11T18:49:04.489Z,99030.97
2023-03-11T18:51:33.836Z,99025.59
2023-03-11T18:54:04.075Z,99029.38
2023-03-11T18:56:33.919Z,99035.94
2023-03-11T18:59:03.145Z,99022.59
2023-03-11T19:01:31.661Z,99029.31
2023-03-11T19:04:01.009Z,99027.72
2023-03-11T19:06:30.148Z,99031.41
2023-03-11T19:08:58.900Z,99037.81
2023-03-11T19:11:27.545Z,99041.16
2023-03-11T19:13:56.786Z,99045.94
2023-03-11T19:16:25.876Z,99062.91
2023-03-11T19:18:55.821Z,99069.09
2023-03-11T19:21:26.309Z,99064.50
2023-03-11T19:23:56.607Z,99074.69
2023-03-11T19:26:43.187Z,99082.22
2023-03-11T19:29:13.914Z,99089.66
2023-03-11T19:31:44.075Z,99084.84
2023-03-11T19:34:13.474Z,99091.25
2023-03-11T19:36:42.441Z,99091.34
2023-03-11T19:39:14.185Z,99095.56
2023-03-11T19:41:43.282Z,99094.50
2023-03-11T19:44:13.197Z,99102.22
2023-03-11T19:46:42.495Z,99100.09
2023-03-11T19:49:10.963Z,99092.41
2023-03-11T19:51:49.502Z,99102.63
2023-03-11T19:54:20.219Z,99112.50
2023-03-11T19:56:50.430Z,99091.84
2023-03-11T19:59:21.173Z,99105.94
2023-03-11T20:01:50.165Z,99093.13
2023-03-11T20:04:20.363Z,99082.66
2023-03-11T20:06:49.027Z,99067.00
2023-03-11T20:09:18.850Z,99078.53
2023-03-11T20:11:47.872Z,99084.53
2023-03-11T20:14:18.390Z,99088.06
2023-03-11T20:16:46.864Z,99089.84
2023-03-11T20:19:15.280Z,99081.09
2023-03-11T20:21:45.699Z,99102.78
2023-03-11T20:24:14.333Z,99102.84
2023-03-11T20:26:44.706Z,99101.53
2023-03-11T20:29:13.572Z,99111.31
2023-03-11T20:31:41.763Z,99109.31
2023-03-11T20:34:12.885Z,99100.25
2023-03-11T20:36:41.769Z,99107.22
2023-03-11T20:39:13.031Z,99098.59
2023-03-11T20:41:42.249Z,99097.97
2023-03-11T20:44:13.450Z,99101.31
2023-03-11T20:46:43.180Z,99105.62
2023-03-11T20:49:11.842Z,99111.06
2023-03-11T20:51:41.743Z,99116.44
2023-03-11T20:54:12.108Z,99121.78
2023-03-11T20:56:41.008Z,99132.84
2023-03-11T20:59:11.598Z,99125.91
2023-03-11T21:01:40.727Z,99133.59
2023-03-11T21:04:10.290Z,99140.09
2023-03-11T21:06:41.421Z,99142.47
2023-03-11T21:09:14.226Z,99146.13
2023-03-11T21:11:42.449Z,99148.25
2023-03-11T21:14:10.533Z,99154.09
2023-03-11T21:16:39.337Z,99154.78
2023-03-11T21:19:08.845Z,99159.81
2023-03-11T21:21:38.038Z,99159.62
2023-03-11T21:24:06.820Z,99165.13
2023-03-11T21:26:34.926Z,99160.19
2023-03-11T21:29:03.286Z,99165.28
2023-03-11T21:31:31.165Z,99174.72
2023-03-11T21:34:01.167Z,99182.72
2023-03-11T21:36:29.796Z,99195.22
2023-03-11T21:38:57.511Z,99158.78
2023-03-11T21:41:26.986Z,99177.66
2023-03-11T21:43:55.811Z,99188.22
2023-03-11T21:46:26.033Z,99193.28
2023-03-11T21:48:53.733Z,99199.25
2023-03-11T21:51:22.120Z,99203.00
2023-03-11T21:53:49.994Z,99201.94
2023-03-11T21:56:17.649Z,99201.53
2023-03-11T21:58:45.514Z,99202.63
2023-03-11T22:01:13.338Z,99207.63
2023-03-11T22:03:41.414Z,99199.34
2023-03-11T22:06:10.997Z,99210.16
2023-03-11T22:08:38.702Z,99190.25
2023-03-11T22:11:12.760Z,99193.44
2023-03-11T22:13:40.380Z,99197.72
2023-03-11T22:16:08.479Z,99203.66
2023-03-11T22:18:36.081Z,99202.47
2023-03-11T22:21:04.511Z,99211.56
2023-03-11T22:23:32.410Z,99204.00
2023-03-11T22:25:59.839Z,99220.97
2023-03-11T22:28:27.744Z,99224.19
2023-03-11T22:30:55.400Z,99221.31
2023-03-11T22:33:22.853Z,99222.34
2023-03-11T22:35:55.094Z,99232.81
2023-03-11T22:38:23.307Z,99241.00
2023-03-11T22:40:51.209Z,99250.69
2023-03-11T22:43:18.642Z,99259.69
2023-03-11T22:45:46.841Z,99252.44
2023-03-11T22:48:14.398Z,99264.53
2023-03-11T22:50:44.963Z,99258.78
2023-03-11T22:53:13.249Z,99269.75
2023-03-11T22:55:41.930Z,99281.84
2023-03-11T22:58:11.168Z,99278.72
2023-03-11T23:00:39.491Z,99295.91
2023-03-11T23:03:07.344Z,99307.25
2023-03-11T23:05:41.616Z,99305.94
2023-03-11T23:08:14.887Z,99309.00
2023-03-11T23:10:44.781Z,99313.56
2023-03-11T23:13:12.928Z,99317.47
2023-03-11T23:15:42.821Z,99318.53
2023-03-11T23:18:10.668Z,99327.34
2023-03-11T23:20:39.680Z,99313.81
2023-03-11T23:23:07.484Z,99310.16
2023-03-11T23:25:35.474Z,99308.84
2023-03-11T23:28:04.451Z,99309.63
2023-03-11T23:30:32.307Z,99315.97
2023-03-11T23:33:00.349Z,99319.53
2023-03-11T23:35:28.251Z,99318.84
2023-03-11T23:37:55.703Z,99325.41
2023-03-11T23:40:23.142Z,99321.94
2023-03-11T23:42:50.927Z,99332.38
2023-03-11T23:45:18.444Z,99333.28
2023-03-11T23:47:45.862Z,99338.84
2023-03-11T23:50:13.687Z,99340.81
2023-03-11T23:52:41.271Z,99331.28
2023-03-11T23:55:10.155Z,99339.13
2023-03-11T23:57:38.960Z,99332.59
